sensor_id;sensor_type;location;lat;lon;timestamp;temperature;humidity
14154;DHT22;7157;53.144;7.570;2023-06-14T00:08:31;17.80;52.75
14154;DHT22;7157;53.144;7.570;2023-06-14T00:18:36;17.70;53.49
14154;DHT22;7157;53.144;7.570;2023-06-14T00:28:39;17.41;54.84
14154;DHT22;7157;53.144;7.570;2023-06-14T00:38:44;17.22;56.60
14154;DHT22;7157;53.144;7.570;2023-06-14T00:48:47;17.11;57.26
14154;DHT22;7157;53.144;7.570;2023-06-14T00:58:51;17.00;58.32
14154;DHT22;7157;53.144;7.570;2023-06-14T01:09:03;16.89;59.67
14154;DHT22;7157;53.144;7.570;2023-06-14T01:19:12;16.80;59.96
14154;DHT22;7157;53.144;7.570;2023-06-14T01:29:17;16.72;60.51
14154;DHT22;7157;53.144;7.570;2023-06-14T01:39:21;16.70;60.69
14154;DHT22;7157;53.144;7.570;2023-06-14T01:49:27;16.65;61.38
14154;DHT22;7157;53.144;7.570;2023-06-14T01:59:29;16.56;61.96
14154;DHT22;7157;53.144;7.570;2023-06-14T02:09:35;16.41;63.11
14154;DHT22;7157;53.144;7.570;2023-06-14T02:19:38;16.32;63.40
14154;DHT22;7157;53.144;7.570;2023-06-14T02:29:42;16.20;64.55
14154;DHT22;7157;53.144;7.570;2023-06-14T02:39:45;16.10;65.75
14154;DHT22;7157;53.144;7.570;2023-06-14T02:49:49;15.96;66.40
14154;DHT22;7157;53.144;7.570;2023-06-14T02:59:52;15.91;67.23
14154;DHT22;7157;53.144;7.570;2023-06-14T03:09:56;15.81;68.17
14154;DHT22;7157;53.144;7.570;2023-06-14T03:19:59;15.76;68.62
14154;DHT22;7157;53.144;7.570;2023-06-14T03:30:04;15.73;69.15
14154;DHT22;7157;53.144;7.570;2023-06-14T03:40:08;15.62;70.23
14154;DHT22;7157;53.144;7.570;2023-06-14T03:50:12;15.75;70.61
14154;DHT22;7157;53.144;7.570;2023-06-14T04:00:16;15.88;70.74
14154;DHT22;7157;53.144;7.570;2023-06-14T04:10:21;16.04;70.41
14154;DHT22;7157;53.144;7.570;2023-06-14T04:20:24;16.19;70.34
14154;DHT22;7157;53.144;7.570;2023-06-14T04:30:29;16.35;70.22
14154;DHT22;7157;53.144;7.570;2023-06-14T04:40:33;16.59;70.35
14154;DHT22;7157;53.144;7.570;2023-06-14T04:50:37;16.79;70.03
14154;DHT22;7157;53.144;7.570;2023-06-14T05:00:42;17.03;69.54
14154;DHT22;7157;53.144;7.570;2023-06-14T05:10:46;17.28;69.19
14154;DHT22;7157;53.144;7.570;2023-06-14T05:20:49;17.56;68.51
14154;DHT22;7157;53.144;7.570;2023-06-14T05:30:53;17.85;67.40
14154;DHT22;7157;53.144;7.570;2023-06-14T05:40:57;18.13;66.78
14154;DHT22;7157;53.144;7.570;2023-06-14T05:51:02;18.46;65.77
14154;DHT22;7157;53.144;7.570;2023-06-14T06:01:05;18.81;64.47
14154;DHT22;7157;53.144;7.570;2023-06-14T06:11:09;19.13;63.40
14154;DHT22;7157;53.144;7.570;2023-06-14T06:21:12;19.41;62.04
14154;DHT22;7157;53.144;7.570;2023-06-14T06:31:16;19.75;60.76
14154;DHT22;7157;53.144;7.570;2023-06-14T06:41:19;20.12;59.55
14154;DHT22;7157;53.144;7.570;2023-06-14T06:51:23;20.26;58.55
14154;DHT22;7157;53.144;7.570;2023-06-14T07:01:26;20.64;57.52
14154;DHT22;7157;53.144;7.570;2023-06-14T07:11:31;21.01;56.13
14154;DHT22;7157;53.144;7.570;2023-06-14T07:21:34;21.21;54.20
14154;DHT22;7157;53.144;7.570;2023-06-14T07:31:40;21.62;52.17
14154;DHT22;7157;53.144;7.570;2023-06-14T07:41:43;21.82;51.76
14154;DHT22;7157;53.144;7.570;2023-06-14T07:51:47;22.25;51.19
14154;DHT22;7157;53.144;7.570;2023-06-14T08:01:51;22.38;50.22
14154;DHT22;7157;53.144;7.570;2023-06-14T08:11:55;22.61;48.99
14154;DHT22;7157;53.144;7.570;2023-06-14T08:21:58;22.88;48.53
14154;DHT22;7157;53.144;7.570;2023-06-14T08:32:03;23.31;47.52
14154;DHT22;7157;53.144;7.570;2023-06-14T08:42:07;23.36;45.64
14154;DHT22;7157;53.144;7.570;2023-06-14T08:52:22;23.71;43.16
14154;DHT22;7157;53.144;7.570;2023-06-14T09:02:25;23.95;42.53
14154;DHT22;7157;53.144;7.570;2023-06-14T09:12:30;23.97;40.23
14154;DHT22;7157;53.144;7.570;2023-06-14T09:22:33;24.27;41.74
14154;DHT22;7157;53.144;7.570;2023-06-14T09:32:38;24.59;41.00
14154;DHT22;7157;53.144;7.570;2023-06-14T09:42:42;24.51;39.37
14154;DHT22;7157;53.144;7.570;2023-06-14T09:52:52;24.69;39.07
14154;DHT22;7157;53.144;7.570;2023-06-14T10:03:00;24.87;39.37
14154;DHT22;7157;53.144;7.570;2023-06-14T10:13:05;25.22;38.82
14154;DHT22;7157;53.144;7.570;2023-06-14T10:23:11;25.66;38.33
14154;DHT22;7157;53.144;7.570;2023-06-14T10:33:17;25.80;38.08
14154;DHT22;7157;53.144;7.570;2023-06-14T10:43:24;25.77;37.00
14154;DHT22;7157;53.144;7.570;2023-06-14T10:53:28;25.94;37.81
14154;DHT22;7157;53.144;7.570;2023-06-14T11:03:43;26.31;35.57
14154;DHT22;7157;53.144;7.570;2023-06-14T11:13:54;26.87;35.34
14154;DHT22;7157;53.144;7.570;2023-06-14T11:23:57;27.08;34.81
14154;DHT22;7157;53.144;7.570;2023-06-14T11:34:01;31.80;29.03
14154;DHT22;7157;53.144;7.570;2023-06-14T11:44:05;36.28;19.89
14154;DHT22;7157;53.144;7.570;2023-06-14T11:54:10;36.44;20.33
14154;DHT22;7157;53.144;7.570;2023-06-14T12:04:13;36.17;20.21
14154;DHT22;7157;53.144;7.570;2023-06-14T12:14:17;36.86;18.64
14154;DHT22;7157;53.144;7.570;2023-06-14T12:24:27;38.43;17.16
14154;DHT22;7157;53.144;7.570;2023-06-14T12:34:32;36.53;19.72
14154;DHT22;7157;53.144;7.570;2023-06-14T12:44:35;39.64;15.92
14154;DHT22;7157;53.144;7.570;2023-06-14T12:54:43;39.33;16.39
14154;DHT22;7157;53.144;7.570;2023-06-14T13:04:46;36.76;18.57
14154;DHT22;7157;53.144;7.570;2023-06-14T13:14:50;30.23;26.88
14154;DHT22;7157;53.144;7.570;2023-06-14T13:24:53;31.20;26.33
14154;DHT22;7157;53.144;7.570;2023-06-14T13:34:57;29.41;27.81
14154;DHT22;7157;53.144;7.570;2023-06-14T13:45:00;29.52;28.31
14154;DHT22;7157;53.144;7.570;2023-06-14T13:55:04;29.44;28.28
14154;DHT22;7157;53.144;7.570;2023-06-14T14:05:08;30.38;27.19
14154;DHT22;7157;53.144;7.570;2023-06-14T14:15:12;29.73;28.19
14154;DHT22;7157;53.144;7.570;2023-06-14T14:25:16;31.10;26.03
14154;DHT22;7157;53.144;7.570;2023-06-14T14:35:20;29.56;27.74
14154;DHT22;7157;53.144;7.570;2023-06-14T14:45:26;28.95;28.17
14154;DHT22;7157;53.144;7.570;2023-06-14T14:55:30;30.07;27.10
14154;DHT22;7157;53.144;7.570;2023-06-14T15:05:35;28.74;29.39
14154;DHT22;7157;53.144;7.570;2023-06-14T15:15:40;28.27;29.71
14154;DHT22;7157;53.144;7.570;2023-06-14T15:25:43;28.33;30.68
14154;DHT22;7157;53.144;7.570;2023-06-14T15:35:47;28.94;29.80
14154;DHT22;7157;53.144;7.570;2023-06-14T15:45:50;28.46;30.51
14154;DHT22;7157;53.144;7.570;2023-06-14T15:55:54;28.70;30.77
14154;DHT22;7157;53.144;7.570;2023-06-14T16:05:56;28.68;30.06
14154;DHT22;7157;53.144;7.570;2023-06-14T16:16:01;28.91;30.11
14154;DHT22;7157;53.144;7.570;2023-06-14T16:26:03;29.11;29.84
14154;DHT22;7157;53.144;7.570;2023-06-14T16:36:08;29.50;29.31
14154;DHT22;7157;53.144;7.570;2023-06-14T16:46:10;29.32;31.83
14154;DHT22;7157;53.144;7.570;2023-06-14T16:56:14;27.63;37.17
14154;DHT22;7157;53.144;7.570;2023-06-14T17:06:17;26.68;40.17
14154;DHT22;7157;53.144;7.570;2023-06-14T17:16:23;26.01;41.33
14154;DHT22;7157;53.144;7.570;2023-06-14T17:26:27;26.24;41.14
14154;DHT22;7157;53.144;7.570;2023-06-14T17:36:31;26.63;41.36
14154;DHT22;7157;53.144;7.570;2023-06-14T17:46:33;27.46;40.20
14154;DHT22;7157;53.144;7.570;2023-06-14T17:56:37;27.54;39.85
14154;DHT22;7157;53.144;7.570;2023-06-14T18:06:40;27.55;39.02
14154;DHT22;7157;53.144;7.570;2023-06-14T18:16:45;27.19;39.14
14154;DHT22;7157;53.144;7.570;2023-06-14T18:26:47;26.73;39.79
14154;DHT22;7157;53.144;7.570;2023-06-14T18:36:51;26.47;40.68
14154;DHT22;7157;53.144;7.570;2023-06-14T18:46:57;25.73;42.30
14154;DHT22;7157;53.144;7.570;2023-06-14T18:57:01;24.72;44.62
14154;DHT22;7157;53.144;7.570;2023-06-14T19:07:05;24.24;46.33
14154;DHT22;7157;53.144;7.570;2023-06-14T19:17:11;23.80;47.34
14154;DHT22;7157;53.144;7.570;2023-06-14T19:27:17;23.41;47.95
14154;DHT22;7157;53.144;7.570;2023-06-14T19:37:21;23.06;48.98
14154;DHT22;7157;53.144;7.570;2023-06-14T19:47:24;22.64;49.68
14154;DHT22;7157;53.144;7.570;2023-06-14T19:57:28;22.31;50.63
14154;DHT22;7157;53.144;7.570;2023-06-14T20:07:31;21.82;52.98
14154;DHT22;7157;53.144;7.570;2023-06-14T20:17:35;21.50;53.52
14154;DHT22;7157;53.144;7.570;2023-06-14T20:27:38;21.03;55.16
14154;DHT22;7157;53.144;7.570;2023-06-14T20:37:42;20.73;55.23
14154;DHT22;7157;53.144;7.570;2023-06-14T20:47:45;20.57;55.79
14154;DHT22;7157;53.144;7.570;2023-06-14T20:57:51;20.29;57.13
14154;DHT22;7157;53.144;7.570;2023-06-14T21:07:54;20.02;57.69
14154;DHT22;7157;53.144;7.570;2023-06-14T21:17:59;19.70;59.03
14154;DHT22;7157;53.144;7.570;2023-06-14T21:28:02;19.53;59.27
14154;DHT22;7157;53.144;7.570;2023-06-14T21:38:06;19.27;60.12
14154;DHT22;7157;53.144;7.570;2023-06-14T21:48:09;19.09;60.64
14154;DHT22;7157;53.144;7.570;2023-06-14T21:58:13;19.07;60.44
14154;DHT22;7157;53.144;7.570;2023-06-14T22:08:16;18.79;61.69
14154;DHT22;7157;53.144;7.570;2023-06-14T22:18:22;18.61;62.36
14154;DHT22;7157;53.144;7.570;2023-06-14T22:28:25;18.37;63.63
14154;DHT22;7157;53.144;7.570;2023-06-14T22:38:29;18.28;64.14
14154;DHT22;7157;53.144;7.570;2023-06-14T22:48:33;18.30;64.34
14154;DHT22;7157;53.144;7.570;2023-06-14T22:58:47;18.18;64.43
14154;DHT22;7157;53.144;7.570;2023-06-14T23:08:51;18.08;64.79
14154;DHT22;7157;53.144;7.570;2023-06-14T23:18:56;17.78;65.40
14154;DHT22;7157;53.144;7.570;2023-06-14T23:29:00;17.75;65.80
14154;DHT22;7157;53.144;7.570;2023-06-14T23:39:05;17.33;66.77
14154;DHT22;7157;53.144;7.570;2023-06-14T23:49:08;17.15;67.45
14154;DHT22;7157;53.144;7.570;2023-06-14T23:59:12;17.05;68.24
